Time;durP1;ratioP1;P1;durP2;ratioP2;P2;SDS_P1;SDS_P2;PMS_P1;PMS_P2;Temp;Humidity;BMP_temperature;BMP_pressure;BME280_temperature;BME280_humidity;BME280_pressure;Samples;Min_cycle;Max_cycle;Signal;HPM_P1;HPM_P2
2022/09/22 00:00:57;;;;;;;0.10;0.10;;;;;;;;;;5056661;28;20645;-69
2022/09/22 00:03:25;;;;;;;0.10;0.10;;;;;;;;;;5055171;28;21217;-72
2022/09/22 00:05:59;;;;;;;0.00;0.00;;;;;;;;;;5053079;28;20656;-69
2022/09/22 00:08:27;;;;;;;0.00;0.00;;;;;;;;;;5057207;28;20682;-69
2022/09/22 00:11:07;;;;;;;0.10;0.10;;;;;;;;;;5060734;28;20704;-70
2022/09/22 00:13:35;;;;;;;0.00;0.00;;;;;;;;;;5057993;28;20596;-70
2022/09/22 00:16:03;;;;;;;0.10;0.10;;;;;;;;;;5053100;28;20640;-70
2022/09/22 00:18:30;;;;;;;0.10;0.10;;;;;;;;;;5053277;28;20641;-69
2022/09/22 00:20:58;;;;;;;0.10;0.10;;;;;;;;;;5059030;28;20637;-69
2022/09/22 00:23:27;;;;;;;0.10;0.10;;;;;;;;;;5055807;28;20652;-70
2022/09/22 00:25:54;;;;;;;0.00;0.00;;;;;;;;;;5054960;28;20683;-71
2022/09/22 00:28:24;;;;;;;0.10;0.10;;;;;;;;;;5057940;28;20621;-71
2022/09/22 00:30:52;;;;;;;0.00;0.00;;;;;;;;;;5061103;28;20615;-70
2022/09/22 00:33:20;;;;;;;0.00;0.00;;;;;;;;;;5061280;28;20628;-70
2022/09/22 00:35:56;;;;;;;0.00;0.00;;;;;;;;;;5059210;28;20640;-69
2022/09/22 00:38:25;;;;;;;0.00;0.00;;;;;;;;;;5053697;28;20629;-68
2022/09/22 00:40:52;;;;;;;0.10;0.10;;;;;;;;;;5055319;28;20667;-69
2022/09/22 00:43:20;;;;;;;0.00;0.00;;;;;;;;;;5057940;28;20710;-69
2022/09/22 00:45:50;;;;;;;0.10;0.10;;;;;;;;;;5061973;28;20771;-69
2022/09/22 00:48:20;;;;;;;0.00;0.00;;;;;;;;;;5053459;28;20636;-69
2022/09/22 00:50:48;;;;;;;0.10;0.10;;;;;;;;;;5068743;28;20601;-71
2022/09/22 00:53:17;;;;;;;0.10;0.10;;;;;;;;;;5061677;28;21183;-70
2022/09/22 00:55:46;;;;;;;0.00;0.00;;;;;;;;;;5064326;28;20655;-69
2022/09/22 00:58:15;;;;;;;0.10;0.10;;;;;;;;;;5056206;28;21033;-70
2022/09/22 01:00:42;;;;;;;0.00;0.00;;;;;;;;;;5060694;28;20663;-70
2022/09/22 01:03:12;;;;;;;0.10;0.10;;;;;;;;;;5059514;28;20659;-70
2022/09/22 01:05:43;;;;;;;0.10;0.10;;;;;;;;;;5063243;28;20700;-71
2022/09/22 01:08:11;;;;;;;0.10;0.10;;;;;;;;;;5056538;28;20612;-71
2022/09/22 01:10:39;;;;;;;0.10;0.10;;;;;;;;;;5061277;28;20732;-70
2022/09/22 01:13:13;;;;;;;0.10;0.10;;;;;;;;;;5063606;28;20627;-69
2022/09/22 01:15:46;;;;;;;0.10;0.10;;;;;;;;;;5056400;28;20656;-70
2022/09/22 01:18:19;;;;;;;0.10;0.10;;;;;;;;;;5066370;28;20627;-70
2022/09/22 01:21:11;;;;;;;0.10;0.10;;;;;;;;;;5066270;28;20649;-70
2022/09/22 01:23:48;;;;;;;0.00;0.00;;;;;;;;;;5042996;28;20713;-70
2022/09/22 01:26:38;;;;;;;0.10;0.10;;;;;;;;;;5057130;28;20771;-71
2022/09/22 01:29:13;;;;;;;0.10;0.10;;;;;;;;;;5063036;28;20612;-70
2022/09/22 01:31:45;;;;;;;0.10;0.10;;;;;;;;;;5062459;28;20689;-70
2022/09/22 01:34:16;;;;;;;0.10;0.10;;;;;;;;;;5054870;28;20613;-69
2022/09/22 01:36:48;;;;;;;0.00;0.00;;;;;;;;;;5065240;28;20613;-70
2022/09/22 01:39:17;;;;;;;0.10;0.10;;;;;;;;;;5059566;28;20608;-69
2022/09/22 01:41:51;;;;;;;0.00;0.00;;;;;;;;;;5067967;28;21050;-69
2022/09/22 01:44:24;;;;;;;0.10;0.10;;;;;;;;;;5061879;28;20683;-69
2022/09/22 01:46:55;;;;;;;0.00;0.00;;;;;;;;;;5061564;28;20684;-69
2022/09/22 01:49:25;;;;;;;0.10;0.10;;;;;;;;;;5065674;28;20632;-69
2022/09/22 01:51:55;;;;;;;0.10;0.10;;;;;;;;;;5065186;28;20699;-70
2022/09/22 01:54:25;;;;;;;0.10;0.10;;;;;;;;;;5065072;28;20711;-71
2022/09/22 01:56:56;;;;;;;0.10;0.10;;;;;;;;;;5058910;28;20625;-70
2022/09/22 01:59:27;;;;;;;0.10;0.10;;;;;;;;;;5056662;28;21192;-69
2022/09/22 02:02:00;;;;;;;0.10;0.10;;;;;;;;;;5066787;28;20675;-69
2022/09/22 02:04:31;;;;;;;0.10;0.10;;;;;;;;;;5058264;28;20633;-71
2022/09/22 02:07:00;;;;;;;0.10;0.10;;;;;;;;;;5055804;28;20721;-70
2022/09/22 02:09:29;;;;;;;0.10;0.10;;;;;;;;;;5063021;28;20654;-69
2022/09/22 02:11:57;;;;;;;0.10;0.10;;;;;;;;;;5059535;28;20625;-71
2022/09/22 02:14:25;;;;;;;0.00;0.00;;;;;;;;;;5060524;28;20624;-70
2022/09/22 02:16:52;;;;;;;0.10;0.10;;;;;;;;;;5063703;28;20599;-69
2022/09/22 02:19:24;;;;;;;0.10;0.10;;;;;;;;;;5061612;28;20640;-70
2022/09/22 02:21:51;;;;;;;0.10;0.10;;;;;;;;;;5058150;28;20611;-70
2022/09/22 02:24:29;;;;;;;0.10;0.10;;;;;;;;;;5054273;28;20632;-70
2022/09/22 02:26:58;;;;;;;0.10;0.10;;;;;;;;;;5063186;28;20671;-69
2022/09/22 02:29:27;;;;;;;0.00;0.00;;;;;;;;;;5055724;28;20621;-71
2022/09/22 02:31:55;;;;;;;0.00;0.00;;;;;;;;;;5065436;28;20608;-70
2022/09/22 02:34:24;;;;;;;0.00;0.00;;;;;;;;;;5059207;28;20626;-70
2022/09/22 02:36:57;;;;;;;0.10;0.10;;;;;;;;;;5066129;28;20616;-71
2022/09/22 02:39:27;;;;;;;0.10;0.10;;;;;;;;;;5059934;28;20643;-68
2022/09/22 02:42:08;;;;;;;0.10;0.10;;;;;;;;;;5059195;28;20628;-70
2022/09/22 02:44:41;;;;;;;0.00;0.00;;;;;;;;;;5051925;28;20628;-70
2022/09/22 02:47:10;;;;;;;0.00;0.00;;;;;;;;;;5059347;28;20637;-71
2022/09/22 02:49:39;;;;;;;0.00;0.00;;;;;;;;;;5054433;28;20713;-69
2022/09/22 02:52:09;;;;;;;0.00;0.00;;;;;;;;;;5059810;28;20664;-71
2022/09/22 02:54:38;;;;;;;0.10;0.10;;;;;;;;;;5060465;28;20664;-70
2022/09/22 02:57:06;;;;;;;0.00;0.00;;;;;;;;;;5054575;28;20667;-70
2022/09/22 02:59:33;;;;;;;0.00;0.00;;;;;;;;;;5063085;28;20656;-70
2022/09/22 03:02:01;;;;;;;0.10;0.10;;;;;;;;;;5059457;28;20742;-69
2022/09/22 03:04:28;;;;;;;0.10;0.10;;;;;;;;;;5059975;28;21122;-69
2022/09/22 03:06:57;;;;;;;0.10;0.10;;;;;;;;;;5058981;28;20653;-69
2022/09/22 03:09:25;;;;;;;0.00;0.00;;;;;;;;;;5064276;28;20616;-70
2022/09/22 03:11:52;;;;;;;0.10;0.10;;;;;;;;;;5060641;28;20665;-70
2022/09/22 03:14:20;;;;;;;0.10;0.10;;;;;;;;;;5062676;28;21095;-70
2022/09/22 03:16:47;;;;;;;0.07;0.07;;;;;;;;;;5062851;28;20680;-70
2022/09/22 03:19:15;;;;;;;0.10;0.10;;;;;;;;;;5063084;28;20625;-70
2022/09/22 03:21:44;;;;;;;0.10;0.10;;;;;;;;;;5054257;28;20665;-71
2022/09/22 03:24:12;;;;;;;0.10;0.10;;;;;;;;;;5056449;28;20617;-70
2022/09/22 03:26:39;;;;;;;0.10;0.10;;;;;;;;;;5054511;28;20649;-70
2022/09/22 03:29:07;;;;;;;0.10;0.10;;;;;;;;;;5066410;28;20611;-70
2022/09/22 03:31:34;;;;;;;0.10;0.10;;;;;;;;;;5064399;28;20603;-70
2022/09/22 03:34:02;;;;;;;0.10;0.10;;;;;;;;;;5066404;28;20637;-71
2022/09/22 03:36:30;;;;;;;0.00;0.00;;;;;;;;;;5058089;28;20659;-71
2022/09/22 03:38:58;;;;;;;0.10;0.10;;;;;;;;;;5060410;28;20633;-70
2022/09/22 03:41:27;;;;;;;0.03;0.03;;;;;;;;;;5058716;28;21270;-70
2022/09/22 03:43:55;;;;;;;0.00;0.00;;;;;;;;;;5053366;28;20635;-71
2022/09/22 03:46:23;;;;;;;0.00;0.00;;;;;;;;;;5052095;28;20657;-70
2022/09/22 03:48:51;;;;;;;0.10;0.10;;;;;;;;;;5052674;28;20624;-71
2022/09/22 03:51:19;;;;;;;0.10;0.10;;;;;;;;;;5057976;28;20687;-70
2022/09/22 03:53:46;;;;;;;0.10;0.10;;;;;;;;;;5051121;28;20618;-69
2022/09/22 03:56:15;;;;;;;0.10;0.10;;;;;;;;;;5053869;28;20710;-69
2022/09/22 03:58:43;;;;;;;0.10;0.10;;;;;;;;;;5054312;28;20631;-69
2022/09/22 04:01:12;;;;;;;0.10;0.10;;;;;;;;;;5056754;28;20741;-70
2022/09/22 04:03:40;;;;;;;0.10;0.10;;;;;;;;;;5056973;28;20601;-70
2022/09/22 04:06:08;;;;;;;0.07;0.07;;;;;;;;;;5053581;28;20663;-69
2022/09/22 04:08:36;;;;;;;0.10;0.10;;;;;;;;;;5050659;28;20631;-70
2022/09/22 04:11:03;;;;;;;0.00;0.00;;;;;;;;;;5059687;28;20611;-71
2022/09/22 04:13:31;;;;;;;0.10;0.10;;;;;;;;;;5053459;28;20604;-71
2022/09/22 04:16:00;;;;;;;0.00;0.00;;;;;;;;;;5058376;28;20647;-70
2022/09/22 04:18:28;;;;;;;0.10;0.10;;;;;;;;;;5056426;28;20613;-70
2022/09/22 04:20:57;;;;;;;0.00;0.00;;;;;;;;;;5055045;28;20660;-70
2022/09/22 04:23:25;;;;;;;0.10;0.10;;;;;;;;;;5056546;28;20621;-70
2022/09/22 04:25:52;;;;;;;0.10;0.10;;;;;;;;;;5055209;28;20640;-71
2022/09/22 04:28:20;;;;;;;0.00;0.00;;;;;;;;;;5062585;28;20627;-70
2022/09/22 04:30:47;;;;;;;0.10;0.10;;;;;;;;;;5059875;28;20610;-70
2022/09/22 04:33:16;;;;;;;0.10;0.10;;;;;;;;;;5071052;28;20608;-70
2022/09/22 04:35:43;;;;;;;0.00;0.00;;;;;;;;;;5063282;28;20667;-69
2022/09/22 04:38:12;;;;;;;0.10;0.10;;;;;;;;;;5060966;28;20632;-71
2022/09/22 04:40:40;;;;;;;0.10;0.10;;;;;;;;;;5056079;28;20656;-69
2022/09/22 04:43:08;;;;;;;0.00;0.00;;;;;;;;;;5059929;28;20627;-69
2022/09/22 04:45:35;;;;;;;0.10;0.10;;;;;;;;;;5056388;28;20738;-70
2022/09/22 04:48:03;;;;;;;0.00;0.00;;;;;;;;;;5064116;28;20999;-65
2022/09/22 04:50:31;;;;;;;0.10;0.10;;;;;;;;;;5058967;28;20608;-70
2022/09/22 04:53:06;;;;;;;0.10;0.10;;;;;;;;;;5063758;28;20616;-70
2022/09/22 04:55:34;;;;;;;0.10;0.10;;;;;;;;;;5078461;28;20748;-70
2022/09/22 04:58:02;;;;;;;0.10;0.10;;;;;;;;;;5057654;28;20641;-68
2022/09/22 05:00:30;;;;;;;0.00;0.00;;;;;;;;;;5059412;28;20657;-69
2022/09/22 05:02:57;;;;;;;0.10;0.10;;;;;;;;;;5061670;28;20619;-68
2022/09/22 05:05:26;;;;;;;0.10;0.10;;;;;;;;;;5060521;28;20657;-69
2022/09/22 05:07:55;;;;;;;0.10;0.10;;;;;;;;;;5061970;28;20612;-69
2022/09/22 05:10:25;;;;;;;0.00;0.00;;;;;;;;;;5065147;28;20616;-68
2022/09/22 05:12:53;;;;;;;0.00;0.00;;;;;;;;;;5057514;28;20687;-71
2022/09/22 05:15:21;;;;;;;0.10;0.10;;;;;;;;;;5063751;28;20673;-69
2022/09/22 05:17:49;;;;;;;0.00;0.00;;;;;;;;;;5065989;28;21212;-69
2022/09/22 05:20:17;;;;;;;0.10;0.10;;;;;;;;;;5063752;28;20628;-70
2022/09/22 05:22:44;;;;;;;0.00;0.00;;;;;;;;;;5065701;28;20600;-69
2022/09/22 05:25:14;;;;;;;0.10;0.10;;;;;;;;;;5067061;28;20656;-70
2022/09/22 05:27:44;;;;;;;0.00;0.00;;;;;;;;;;5055912;28;20628;-71
2022/09/22 05:30:12;;;;;;;0.10;0.10;;;;;;;;;;5060212;28;20631;-71
2022/09/22 05:32:39;;;;;;;0.10;0.10;;;;;;;;;;5062279;28;20671;-71
2022/09/22 05:35:07;;;;;;;0.00;0.00;;;;;;;;;;5061192;28;20710;-73
2022/09/22 05:37:35;;;;;;;0.00;0.00;;;;;;;;;;5060035;28;20969;-72
2022/09/22 05:40:02;;;;;;;0.10;0.10;;;;;;;;;;5064203;28;20633;-72
2022/09/22 05:42:31;;;;;;;0.10;0.10;;;;;;;;;;5068515;28;20656;-71
2022/09/22 05:44:59;;;;;;;0.10;0.10;;;;;;;;;;5060385;28;20659;-71
2022/09/22 05:47:26;;;;;;;0.10;0.10;;;;;;;;;;5063381;28;20632;-73
2022/09/22 05:49:55;;;;;;;0.10;0.10;;;;;;;;;;5059733;28;20609;-72
2022/09/22 05:52:22;;;;;;;0.10;0.10;;;;;;;;;;5061069;28;20617;-72
2022/09/22 05:54:50;;;;;;;0.10;0.10;;;;;;;;;;5060493;28;20764;-72
2022/09/22 05:57:20;;;;;;;0.10;0.10;;;;;;;;;;5058370;28;20987;-72
2022/09/22 05:59:49;;;;;;;0.10;0.10;;;;;;;;;;5065355;28;20607;-72
2022/09/22 06:02:16;;;;;;;0.10;0.10;;;;;;;;;;5050254;28;20691;-72
2022/09/22 06:04:44;;;;;;;0.10;0.10;;;;;;;;;;5067643;28;20643;-72
2022/09/22 06:07:12;;;;;;;0.00;0.00;;;;;;;;;;5067460;28;20712;-72
2022/09/22 06:09:39;;;;;;;0.10;0.10;;;;;;;;;;5062033;28;20618;-72
2022/09/22 06:12:07;;;;;;;0.10;0.10;;;;;;;;;;5061828;28;20676;-72
2022/09/22 06:14:35;;;;;;;0.00;0.00;;;;;;;;;;5058893;28;20615;-72
2022/09/22 06:17:07;;;;;;;0.00;0.00;;;;;;;;;;5065301;28;20709;-72
2022/09/22 06:19:35;;;;;;;0.03;0.03;;;;;;;;;;5052985;28;20621;-73
2022/09/22 06:22:02;;;;;;;0.10;0.10;;;;;;;;;;5063222;28;20649;-73
2022/09/22 06:24:30;;;;;;;0.10;0.10;;;;;;;;;;5053695;28;20625;-72
2022/09/22 06:26:58;;;;;;;0.10;0.10;;;;;;;;;;5057392;28;20682;-72
2022/09/22 06:29:27;;;;;;;0.00;0.00;;;;;;;;;;5062341;28;20665;-72
2022/09/22 06:31:54;;;;;;;0.00;0.00;;;;;;;;;;5055810;28;20617;-73
2022/09/22 06:34:25;;;;;;;0.10;0.10;;;;;;;;;;5063165;28;20621;-72
2022/09/22 06:36:54;;;;;;;0.00;0.00;;;;;;;;;;5063506;28;20673;-73
2022/09/22 06:39:22;;;;;;;0.10;0.10;;;;;;;;;;5062737;28;20602;-72
2022/09/22 06:41:50;;;;;;;0.10;0.10;;;;;;;;;;5067379;28;20651;-72
2022/09/22 06:44:17;;;;;;;0.10;0.10;;;;;;;;;;5058937;28;21003;-72
2022/09/22 06:46:45;;;;;;;0.00;0.00;;;;;;;;;;5060652;28;20633;-72
2022/09/22 06:49:13;;;;;;;0.10;0.10;;;;;;;;;;5061844;28;20645;-72
2022/09/22 06:51:42;;;;;;;0.10;0.10;;;;;;;;;;5055936;28;20629;-71
2022/09/22 06:54:10;;;;;;;0.10;0.10;;;;;;;;;;5059192;28;20744;-71
2022/09/22 06:56:41;;;;;;;0.10;0.10;;;;;;;;;;5058414;28;20745;-71
2022/09/22 06:59:13;;;;;;;0.00;0.00;;;;;;;;;;5060671;28;20624;-72
2022/09/22 07:01:41;;;;;;;0.10;0.10;;;;;;;;;;5060428;28;20652;-72
2022/09/22 07:04:08;;;;;;;0.10;0.10;;;;;;;;;;5061710;28;20620;-72
2022/09/22 07:06:36;;;;;;;0.10;0.10;;;;;;;;;;5065022;28;21268;-72
2022/09/22 07:09:05;;;;;;;0.10;0.10;;;;;;;;;;5063177;28;20619;-72
2022/09/22 07:11:33;;;;;;;0.10;0.10;;;;;;;;;;5065999;28;20726;-72
2022/09/22 07:14:01;;;;;;;0.10;0.10;;;;;;;;;;5055648;28;20628;-72
2022/09/22 07:16:29;;;;;;;0.10;0.10;;;;;;;;;;5065551;28;20664;-72
2022/09/22 07:18:58;;;;;;;0.10;0.10;;;;;;;;;;5056442;28;20615;-72
2022/09/22 07:21:31;;;;;;;0.00;0.00;;;;;;;;;;5058797;28;20659;-71
2022/09/22 07:23:59;;;;;;;0.10;0.10;;;;;;;;;;5058084;28;20621;-72
2022/09/22 07:26:31;;;;;;;0.10;0.10;;;;;;;;;;5057497;28;20672;-71
2022/09/22 07:29:00;;;;;;;0.10;0.10;;;;;;;;;;5057369;28;20721;-71
2022/09/22 07:31:29;;;;;;;0.10;0.10;;;;;;;;;;5056418;28;20735;-71
2022/09/22 07:33:58;;;;;;;0.10;0.10;;;;;;;;;;5060853;28;20627;-73
2022/09/22 07:36:26;;;;;;;0.00;0.00;;;;;;;;;;5055516;28;20649;-72
2022/09/22 07:38:54;;;;;;;0.10;0.10;;;;;;;;;;5057055;28;20622;-73
2022/09/22 07:41:23;;;;;;;0.10;0.10;;;;;;;;;;5059205;28;20755;-72
2022/09/22 07:43:54;;;;;;;0.00;0.00;;;;;;;;;;5051993;28;20640;-73
2022/09/22 07:46:22;;;;;;;0.00;0.00;;;;;;;;;;5057677;28;20780;-71
2022/09/22 07:48:49;;;;;;;0.00;0.00;;;;;;;;;;5064677;28;20655;-71
2022/09/22 07:51:19;;;;;;;0.00;0.00;;;;;;;;;;5055751;28;20633;-72
2022/09/22 07:53:47;;;;;;;0.00;0.00;;;;;;;;;;5058801;28;20636;-72
2022/09/22 07:56:16;;;;;;;0.10;0.10;;;;;;;;;;5058903;28;20705;-73
2022/09/22 07:58:45;;;;;;;0.00;0.00;;;;;;;;;;5053627;28;20616;-72
2022/09/22 08:01:15;;;;;;;0.00;0.00;;;;;;;;;;5053030;28;20620;-72
2022/09/22 08:03:43;;;;;;;0.10;0.10;;;;;;;;;;5055343;28;20661;-72
2022/09/22 08:06:11;;;;;;;0.00;0.00;;;;;;;;;;5054387;28;21128;-72
2022/09/22 08:08:39;;;;;;;0.10;0.10;;;;;;;;;;5053484;28;20627;-72
2022/09/22 08:11:07;;;;;;;0.10;0.10;;;;;;;;;;5055901;28;20616;-72
2022/09/22 08:13:35;;;;;;;0.00;0.00;;;;;;;;;;5048261;28;20627;-73
2022/09/22 08:16:04;;;;;;;0.00;0.00;;;;;;;;;;5053154;28;20755;-73
2022/09/22 08:18:34;;;;;;;0.10;0.10;;;;;;;;;;5060357;28;21216;-72
2022/09/22 08:21:02;;;;;;;0.00;0.00;;;;;;;;;;5056989;28;20655;-72
2022/09/22 08:23:30;;;;;;;0.10;0.10;;;;;;;;;;5054163;28;20736;-72
2022/09/22 08:25:58;;;;;;;0.10;0.10;;;;;;;;;;5055670;28;20647;-72
2022/09/22 08:28:25;;;;;;;0.10;0.10;;;;;;;;;;5057396;28;20760;-71
2022/09/22 08:30:53;;;;;;;0.00;0.00;;;;;;;;;;5062901;28;20678;-73
2022/09/22 08:33:21;;;;;;;0.10;0.10;;;;;;;;;;5055053;28;20199;-73
2022/09/22 08:35:53;;;;;;;0.00;0.00;;;;;;;;;;5063760;28;20229;-72
2022/09/22 08:38:22;;;;;;;0.00;0.00;;;;;;;;;;5057918;28;20629;-71
2022/09/22 08:41:04;;;;;;;0.10;0.10;;;;;;;;;;5056256;28;20632;-72
2022/09/22 08:43:32;;;;;;;0.00;0.00;;;;;;;;;;5056144;28;20215;-71
2022/09/22 08:46:01;;;;;;;0.10;0.10;;;;;;;;;;5056986;28;20294;-72
2022/09/22 08:54:08;;;;;;;0.00;0.00;;;;;;;;;;5051584;28;20203;-73
2022/09/22 08:56:37;;;;;;;0.00;0.00;;;;;;;;;;5057386;28;20292;-73
2022/09/22 08:59:08;;;;;;;0.10;0.10;;;;;;;;;;5058542;28;20190;-73
2022/09/22 09:01:42;;;;;;;0.10;0.10;;;;;;;;;;5058886;28;20202;-71
2022/09/22 09:04:22;;;;;;;0.10;0.10;;;;;;;;;;5055485;28;20202;-71
2022/09/22 09:06:56;;;;;;;0.07;0.07;;;;;;;;;;5059691;28;20202;-72
2022/09/22 09:09:31;;;;;;;0.07;0.07;;;;;;;;;;5061646;28;20229;-72
2022/09/22 09:12:17;;;;;;;0.00;0.00;;;;;;;;;;5057462;28;20278;-71
2022/09/22 09:14:51;;;;;;;0.00;0.00;;;;;;;;;;5047853;28;20226;-73
2022/09/22 09:17:21;;;;;;;0.00;0.00;;;;;;;;;;5059768;28;20575;-72
2022/09/22 09:19:53;;;;;;;0.00;0.00;;;;;;;;;;5062090;28;20209;-71
2022/09/22 09:22:24;;;;;;;0.10;0.10;;;;;;;;;;5067292;28;20306;-72
2022/09/22 09:24:55;;;;;;;0.00;0.00;;;;;;;;;;5053951;28;20272;-72
2022/09/22 09:27:24;;;;;;;0.00;0.00;;;;;;;;;;5062058;28;20195;-72
2022/09/22 09:29:56;;;;;;;0.00;0.00;;;;;;;;;;5057676;28;20202;-72
2022/09/22 09:32:32;;;;;;;0.00;0.00;;;;;;;;;;5067526;28;20210;-72
2022/09/22 09:35:00;;;;;;;0.00;0.00;;;;;;;;;;5057336;28;20218;-72
2022/09/22 09:37:29;;;;;;;0.00;0.00;;;;;;;;;;5062877;28;20210;-72
2022/09/22 09:39:57;;;;;;;0.00;0.00;;;;;;;;;;5064001;28;20191;-72
2022/09/22 09:42:26;;;;;;;0.10;0.10;;;;;;;;;;5061616;22;20222;-73
2022/09/22 09:44:56;;;;;;;0.00;0.00;;;;;;;;;;5000400;28;20209;-73
2022/09/22 09:47:29;;;;;;;0.00;0.00;;;;;;;;;;5000655;28;20688;-73
2022/09/22 09:49:56;;;;;;;0.00;0.00;;;;;;;;;;5007341;28;20229;-73
2022/09/22 09:52:25;;;;;;;0.00;0.00;;;;;;;;;;5005034;28;20202;-73
2022/09/22 09:54:55;;;;;;;0.00;0.00;;;;;;;;;;5007702;28;20212;-73
2022/09/22 09:57:23;;;;;;;0.00;0.00;;;;;;;;;;5006390;28;20196;-74
2022/09/22 10:03:04;;;;;;;0.03;0.03;;;;;;;;;;5004442;28;20247;-75
2022/09/22 10:05:36;;;;;;;0.00;0.00;;;;;;;;;;5006096;28;20232;-73
2022/09/22 10:08:14;;;;;;;0.00;0.00;;;;;;;;;;5003622;28;20252;-73
2022/09/22 10:10:43;;;;;;;0.00;0.00;;;;;;;;;;5005670;28;20204;-73
2022/09/22 10:13:30;;;;;;;0.00;0.00;;;14.30;99.90;;;;;;5008728;28;20197;-74
2022/09/22 10:16:23;;;;;;;0.00;0.00;;;15.80;99.90;;;;;;5008482;28;20200;-73
2022/09/22 10:18:52;;;;;;;0.00;0.00;;;;;;;;;;4998442;28;20225;-73
2022/09/22 10:21:20;;;;;;;0.00;0.00;;;;;;;;;;5006772;28;20196;-74
2022/09/22 10:23:48;;;;;;;0.00;0.00;;;;;;;;;;5003386;28;20252;-74
2022/09/22 10:26:19;;;;;;;0.00;0.00;;;;;;;;;;5005343;28;20201;-74
2022/09/22 10:28:49;;;;;;;0.00;0.00;;;;;;;;;;5008359;28;20311;-74
2022/09/22 10:31:21;;;;;;;0.00;0.00;;;;;;;;;;5005323;28;20299;-75
2022/09/22 10:33:57;;;;;;;0.00;0.00;;;;;;;;;;5006745;28;20220;-74
2022/09/22 10:36:26;;;;;;;0.00;0.00;;;;;;;;;;5007117;28;20223;-73
2022/09/22 10:38:54;;;;;;;0.00;0.00;;;;;;;;;;5007637;28;20217;-74
2022/09/22 10:41:26;;;;;;;0.00;0.00;;;;;;;;;;5008363;28;20205;-73
2022/09/22 10:43:55;;;;;;;0.00;0.00;;;;;;;;;;5007089;28;20256;-74
2022/09/22 10:46:37;;;;;;;0.00;0.00;;;;;;;;;;5006336;28;20226;-74
2022/09/22 10:49:09;;;;;;;0.00;0.00;;;;;;;;;;5006274;28;20224;-74
2022/09/22 10:51:55;;;;;;;0.00;0.00;;;15.80;99.90;;;;;;5021191;28;20203;-75
2022/09/22 10:54:40;;;;;;;0.00;0.00;;;16.80;99.90;;;;;;5004090;28;20223;-74
2022/09/22 10:57:14;;;;;;;0.00;0.00;;;;;;;;;;5006008;28;20204;-76
2022/09/22 10:59:48;;;;;;;0.00;0.00;;;;;;;;;;5003834;28;20227;-74
2022/09/22 11:02:30;;;;;;;0.00;0.00;;;;;;;;;;5006142;28;20211;-74
2022/09/22 11:05:05;;;;;;;0.00;0.00;;;;;;;;;;5002184;28;20215;-74
2022/09/22 11:13:17;;;;;;;0.00;0.00;;;;;;;;;;5003225;28;20192;-76
2022/09/22 11:15:54;;;;;;;0.00;0.00;;;;;;;;;;5006137;28;20235;-76
2022/09/22 11:18:27;;;;;;;0.00;0.00;;;;;;;;;;5004412;28;20319;-74
2022/09/22 11:21:00;;;;;;;0.00;0.00;;;;;;;;;;5006119;28;20219;-74
2022/09/22 11:23:48;;;;;;;0.00;0.00;;;;;;;;;;5001846;28;20224;-74
2022/09/22 11:26:24;;;;;;;0.00;0.00;;;;;;;;;;5002709;28;20224;-74
2022/09/22 11:28:56;;;;;;;0.00;0.00;;;;;;;;;;5006815;28;20230;-77
2022/09/22 11:31:36;;;;;;;0.00;0.00;;;;;;;;;;5003177;28;20291;-75
2022/09/22 11:34:19;;;;;;;0.00;0.00;;;;;;;;;;5002394;28;20215;-74
2022/09/22 11:36:49;;;;;;;0.00;0.00;;;;;;;;;;5021812;28;20204;-74
2022/09/22 11:39:31;;;;;;;0.00;0.00;;;;;;;;;;5005726;28;20229;-74
2022/09/22 11:42:07;;;;;;;0.00;0.00;;;17.00;99.90;;;;;;5018551;28;20197;-73
2022/09/22 11:44:39;;;;;;;0.00;0.00;;;18.50;99.90;;;;;;5005881;28;20230;-73
2022/09/22 11:47:26;;;;;;;0.00;0.00;;;18.30;99.90;;;;;;5002345;28;20204;-74
2022/09/22 11:50:26;;;;;;;0.00;0.00;;;18.30;99.90;;;;;;5004594;28;20223;-72
2022/09/22 11:53:11;;;;;;;0.00;0.00;;;18.20;99.90;;;;;;4974200;28;20203;-73
2022/09/22 11:55:43;;;;;;;0.00;0.00;;;18.20;99.90;;;;;;5002532;28;20205;-74
2022/09/22 11:58:16;;;;;;;0.00;0.00;;;18.20;99.90;;;;;;5004326;28;20229;-74
2022/09/22 12:00:51;;;;;;;0.00;0.00;;;18.20;99.90;;;;;;5005409;28;20197;-74
2022/09/22 12:03:24;;;;;;;0.00;0.00;;;18.10;99.90;;;;;;4999893;28;20226;-74
2022/09/22 12:05:54;;;;;;;0.00;0.00;;;18.10;99.90;;;;;;5005061;28;20196;-75
2022/09/22 12:08:25;;;;;;;0.00;0.00;;;18.00;99.90;;;;;;5006518;28;20639;-74
2022/09/22 12:10:54;;;;;;;0.00;0.00;;;17.90;99.90;;;;;;5020365;28;20200;-74
2022/09/22 12:13:22;;;;;;;0.00;0.00;;;17.90;99.90;;;;;;5005358;28;20720;-74
2022/09/22 12:16:01;;;;;;;0.00;0.00;;;17.80;99.90;;;;;;5005082;28;20606;-73
2022/09/22 12:18:37;;;;;;;0.00;0.00;;;17.80;99.90;;;;;;5003517;28;20233;-75
2022/09/22 12:21:14;;;;;;;0.00;0.00;;;17.70;99.90;;;;;;5022413;28;20211;-75
2022/09/22 12:23:43;;;;;;;0.00;0.00;;;17.70;99.90;;;;;;5005530;28;20226;-74
2022/09/22 12:26:12;;;;;;;0.00;0.00;;;17.60;99.90;;;;;;5003232;28;20219;-74
2022/09/22 12:28:42;;;;;;;0.00;0.00;;;17.50;99.90;;;;;;5005023;28;20219;-74
2022/09/22 12:31:12;;;;;;;0.00;0.00;;;17.50;99.90;;;;;;5005155;28;20212;-74
2022/09/22 12:33:47;;;;;;;0.00;0.00;;;17.50;99.90;;;;;;5002517;28;20251;-76
2022/09/22 12:36:16;;;;;;;0.00;0.00;;;17.40;99.90;;;;;;5003437;28;20215;-74
2022/09/22 12:38:44;;;;;;;0.00;0.00;;;17.40;99.90;;;;;;5006707;28;20224;-75
2022/09/22 12:41:17;;;;;;;0.00;0.00;;;17.40;99.90;;;;;;5001278;28;20197;-73
2022/09/22 12:43:46;;;;;;;0.00;0.00;;;17.40;99.90;;;;;;5005158;28;20232;-74
2022/09/22 12:46:26;;;;;;;0.00;0.00;;;17.40;99.90;;;;;;5004648;28;20208;-74
2022/09/22 12:48:54;;;;;;;0.00;0.00;;;17.40;99.90;;;;;;5003772;28;20289;-73
2022/09/22 12:51:31;;;;;;;0.00;0.00;;;17.30;99.90;;;;;;5006033;28;20204;-74
2022/09/22 12:54:27;;;;;;;0.00;0.00;;;17.30;99.90;;;;;;5021666;28;20271;-75
2022/09/22 12:56:58;;;;;;;0.00;0.00;;;17.20;99.90;;;;;;5005397;28;20247;-74
2022/09/22 12:59:54;;;;;;;0.00;0.00;;;17.20;99.90;;;;;;5009239;28;20220;-75
2022/09/22 13:02:30;;;;;;;0.00;0.00;;;17.20;99.90;;;;;;5008318;28;20736;-74
2022/09/22 13:05:36;;;;;;;0.00;0.00;;;17.20;99.90;;;;;;5009365;28;20228;-74
2022/09/22 13:08:04;;;;;;;0.00;0.00;;;17.20;99.90;;;;;;5004982;28;20216;-74
2022/09/22 13:10:42;;;;;;;0.00;0.00;;;17.10;99.90;;;;;;5008215;28;20200;-74
2022/09/22 13:13:11;;;;;;;0.00;0.00;;;17.10;99.90;;;;;;5008905;28;20216;-75
2022/09/22 13:15:58;;;;;;;0.00;0.00;;;17.00;99.90;;;;;;5008847;28;20650;-76
2022/09/22 13:18:36;;;;;;;0.00;0.00;;;17.00;99.90;;;;;;5006794;28;20224;-74
2022/09/22 13:21:19;;;;;;;0.00;0.00;;;17.00;99.90;;;;;;5003406;28;20203;-75
2022/09/22 13:23:56;;;;;;;0.00;0.00;;;17.00;99.90;;;;;;5006948;28;20222;-74
2022/09/22 13:26:26;;;;;;;0.00;0.00;;;17.00;99.90;;;;;;5020565;28;20236;-73
2022/09/22 13:29:10;;;;;;;0.00;0.00;;;16.90;99.90;;;;;;5003021;28;20624;-74
2022/09/22 13:31:42;;;;;;;0.00;0.00;;;16.90;99.90;;;;;;5004319;28;20207;-76
2022/09/22 13:34:26;;;;;;;0.00;0.00;;;16.90;99.90;;;;;;5007896;28;20419;-74
2022/09/22 13:36:59;;;;;;;0.00;0.00;;;16.80;99.90;;;;;;5002867;28;20205;-74
2022/09/22 13:39:30;;;;;;;0.00;0.00;;;16.80;99.90;;;;;;5005659;28;20217;-74
2022/09/22 13:42:11;;;;;;;0.00;0.00;;;16.80;99.90;;;;;;5007840;28;20205;-75
2022/09/22 13:44:41;;;;;;;0.00;0.00;;;16.80;99.90;;;;;;5006198;28;20223;-73
2022/09/22 13:47:22;;;;;;;0.00;0.00;;;16.80;99.90;;;;;;5003239;28;20299;-74
2022/09/22 13:49:54;;;;;;;0.00;0.00;;;16.90;99.90;;;;;;5004607;28;20259;-73
2022/09/22 13:52:26;;;;;;;0.00;0.00;;;16.90;99.90;;;;;;5005221;28;20263;-73
2022/09/22 13:54:56;;;;;;;0.00;0.00;;;16.90;99.90;;;;;;5007161;28;20193;-73
2022/09/22 13:57:27;;;;;;;0.00;0.00;;;16.90;99.90;;;;;;5007040;28;20212;-73
2022/09/22 13:59:56;;;;;;;0.00;0.00;;;16.90;99.90;;;;;;5023946;28;20236;-73
2022/09/22 14:02:25;;;;;;;0.00;0.00;;;16.90;99.90;;;;;;5010414;28;20205;-74
2022/09/22 14:04:56;;;;;;;0.00;0.00;;;16.90;99.90;;;;;;5008042;28;20224;-74
2022/09/22 14:07:27;;;;;;;0.00;0.00;;;16.90;99.90;;;;;;5005646;28;20287;-75
2022/09/22 14:09:56;;;;;;;0.00;0.00;;;16.90;99.90;;;;;;5008172;28;20248;-73
2022/09/22 14:12:23;;;;;;;0.00;0.00;;;16.90;99.90;;;;;;5007507;28;20201;-74
2022/09/22 14:14:51;;;;;;;0.00;0.00;;;16.90;99.90;;;;;;5009064;28;20200;-74
2022/09/22 14:17:21;;;;;;;0.00;0.00;;;16.90;99.90;;;;;;5006294;28;20203;-74
2022/09/22 14:19:57;;;;;;;0.00;0.00;;;16.90;99.90;;;;;;5004553;28;20343;-74
2022/09/22 14:22:26;;;;;;;0.00;0.00;;;16.90;99.90;;;;;;5003400;28;20193;-75
2022/09/22 14:24:56;;;;;;;0.00;0.00;;;16.90;99.90;;;;;;5003952;28;20243;-75
2022/09/22 14:27:26;;;;;;;0.00;0.00;;;16.90;99.90;;;;;;5005553;28;20228;-75
2022/09/22 14:29:55;;;;;;;0.00;0.00;;;17.00;99.90;;;;;;5006007;28;20225;-73
2022/09/22 14:32:30;;;;;;;0.00;0.00;;;16.90;99.90;;;;;;5005314;28;20207;-76
2022/09/22 14:35:01;;;;;;;0.00;0.00;;;16.90;99.90;;;;;;5006464;28;20269;-74
2022/09/22 14:37:32;;;;;;;0.00;0.00;;;16.90;99.90;;;;;;5006625;28;20201;-75
2022/09/22 14:40:03;;;;;;;0.00;0.00;;;16.90;99.90;;;;;;5021773;28;20221;-74
2022/09/22 14:42:33;;;;;;;0.00;0.00;;;16.90;99.90;;;;;;5004610;28;20228;-75
2022/09/22 14:45:19;;;;;;;0.00;0.00;;;16.90;99.90;;;;;;5007281;28;20259;-75
2022/09/22 14:47:47;;;;;;;0.00;0.00;;;16.90;99.90;;;;;;5023184;28;20209;-74
2022/09/22 14:50:18;;;;;;;0.00;0.00;;;16.90;99.90;;;;;;5006266;28;20255;-74